TimeCDT,TemperatureF,Dew PointF,Humidity,Sea Level PressureIn,VisibilityMPH,Wind Direction,Wind SpeedMPH,Gust SpeedMPH,PrecipitationIn,Events,Conditions,WindDirDegrees,DateUTC
12:15 AM,24.8,17.6,74,30.30,10.0,Calm,Calm,-,N/A,,Clear,0,2013-04-03 05:15:00
12:35 AM,23.0,17.6,80,30.30,10.0,Calm,Calm,-,N/A,,Clear,0,2013-04-03 05:35:00
12:55 AM,23.0,17.6,80,30.31,10.0,Calm,Calm,-,N/A,,Clear,0,2013-04-03 05:55:00
1:15 AM,23.0,17.6,80,30.31,10.0,Calm,Calm,-,N/A,,Clear,0,2013-04-03 06:15:00
1:35 AM,21.2,17.6,86,30.31,10.0,Calm,Calm,-,N/A,,Clear,0,2013-04-03 06:35:00
1:55 AM,23.0,17.6,80,30.31,10.0,Calm,Calm,-,N/A,,Clear,0,2013-04-03 06:55:00
2:15 AM,23.0,17.6,80,30.31,10.0,Calm,Calm,-,N/A,,Clear,0,2013-04-03 07:15:00
2:35 AM,23.0,17.6,80,30.32,10.0,Calm,Calm,-,N/A,,Clear,0,2013-04-03 07:35:00
2:55 AM,21.2,17.6,86,30.32,10.0,Calm,Calm,-,N/A,,Clear,0,2013-04-03 07:55:00
3:15 AM,21.2,17.6,86,30.32,10.0,Calm,Calm,-,N/A,,Clear,0,2013-04-03 08:15:00
3:35 AM,21.2,17.6,86,30.33,10.0,Calm,Calm,-,N/A,,Clear,0,2013-04-03 08:35:00
3:55 AM,21.2,17.6,86,30.34,10.0,Calm,Calm,-,N/A,,Clear,0,2013-04-03 08:55:00
4:15 AM,21.2,17.6,86,30.34,10.0,Calm,Calm,-,N/A,,Clear,0,2013-04-03 09:15:00
4:35 AM,21.2,17.6,86,30.34,10.0,Calm,Calm,-,N/A,,Clear,0,2013-04-03 09:35:00
4:55 AM,21.2,17.6,86,30.35,10.0,Calm,Calm,-,N/A,,Clear,0,2013-04-03 09:55:00
5:15 AM,19.4,17.6,93,30.35,10.0,Calm,Calm,-,N/A,,Clear,0,2013-04-03 10:15:00
5:35 AM,19.4,17.6,93,30.36,10.0,Calm,Calm,-,N/A,,Clear,0,2013-04-03 10:35:00
5:55 AM,19.4,17.6,93,30.37,10.0,Calm,Calm,-,N/A,,Clear,0,2013-04-03 10:55:00
6:15 AM,21.2,17.6,86,30.37,10.0,Calm,Calm,-,N/A,,Clear,0,2013-04-03 11:15:00
6:35 AM,21.2,17.6,86,30.38,10.0,Calm,Calm,-,N/A,,Clear,0,2013-04-03 11:35:00
6:55 AM,19.4,17.6,93,30.40,10.0,Calm,Calm,-,N/A,,Clear,0,2013-04-03 11:55:00
7:15 AM,23.0,17.6,80,30.40,10.0,Calm,Calm,-,N/A,,Clear,0,2013-04-03 12:15:00
7:35 AM,26.6,21.2,80,30.40,10.0,Calm,Calm,-,N/A,,Clear,0,2013-04-03 12:35:00
7:55 AM,28.4,19.4,69,30.40,10.0,Calm,Calm,-,N/A,,Scattered Clouds,0,2013-04-03 12:55:00
8:15 AM,32.0,24.8,75,30.40,10.0,North,4.6,-,N/A,,Scattered Clouds,10,2013-04-03 13:15:00
8:35 AM,35.6,26.6,70,30.41,10.0,North,11.5,-,N/A,,Clear,10,2013-04-03 13:35:00
8:55 AM,35.6,23.0,60,30.43,10.0,NNE,8.1,-,N/A,,Clear,30,2013-04-03 13:55:00
9:15 AM,35.6,23.0,60,30.43,10.0,North,5.8,-,N/A,,Clear,10,2013-04-03 14:15:00
9:35 AM,35.6,21.2,56,30.43,10.0,NE,8.1,17.3,N/A,,Clear,50,2013-04-03 14:35:00
9:55 AM,37.4,19.4,48,30.44,10.0,North,10.4,-,N/A,,Scattered Clouds,360,2013-04-03 14:55:00
10:15 AM,37.4,19.4,48,30.44,10.0,NNE,4.6,-,N/A,,Clear,20,2013-04-03 15:15:00
10:35 AM,37.4,17.6,45,30.44,10.0,North,8.1,-,N/A,,Clear,10,2013-04-03 15:35:00
10:55 AM,37.4,17.6,45,30.45,10.0,North,8.1,-,N/A,,Clear,350,2013-04-03 15:55:00
11:15 AM,39.2,15.8,39,30.45,10.0,North,8.1,-,N/A,,Clear,10,2013-04-03 16:15:00
11:35 AM,37.4,17.6,45,30.45,10.0,NNE,9.2,-,N/A,,Clear,20,2013-04-03 16:35:00
11:55 AM,37.4,17.6,45,30.44,10.0,ENE,8.1,-,N/A,,Clear,60,2013-04-03 16:55:00
12:15 PM,37.4,17.6,45,30.45,10.0,North,8.1,-,N/A,,Clear,350,2013-04-03 17:15:00
12:35 PM,37.4,14.0,38,30.45,10.0,NNW,9.2,-,N/A,,Clear,340,2013-04-03 17:35:00
12:55 PM,39.2,12.2,33,30.46,10.0,NNW,8.1,-,N/A,,Clear,340,2013-04-03 17:55:00
1:15 PM,37.4,12.2,36,30.46,10.0,Calm,Calm,-,N/A,,Clear,0,2013-04-03 18:15:00
1:35 PM,39.2,14.0,36,30.45,10.0,NNW,9.2,-,N/A,,Clear,340,2013-04-03 18:35:00
1:55 PM,39.2,12.2,33,30.44,10.0,NNW,9.2,-,N/A,,Clear,340,2013-04-03 18:55:00
2:15 PM,39.2,12.2,33,30.43,10.0,NNW,8.1,-,N/A,,Clear,340,2013-04-03 19:15:00
2:35 PM,39.2,12.2,33,30.41,10.0,North,10.4,-,N/A,,Clear,350,2013-04-03 19:35:00
2:55 PM,37.4,12.2,36,30.40,10.0,North,9.2,-,N/A,,Clear,360,2013-04-03 19:55:00
3:15 PM,37.4,12.2,36,30.40,10.0,North,10.4,-,N/A,,Clear,10,2013-04-03 20:15:00
3:35 PM,37.4,14.0,38,30.39,10.0,North,12.7,-,N/A,,Clear,350,2013-04-03 20:35:00
3:55 PM,37.4,14.0,38,30.39,10.0,NNE,10.4,-,N/A,,Clear,20,2013-04-03 20:55:00
4:15 PM,37.4,14.0,38,30.39,10.0,North,9.2,-,N/A,,Clear,10,2013-04-03 21:15:00
4:35 PM,37.4,14.0,38,30.38,10.0,North,10.4,-,N/A,,Clear,350,2013-04-03 21:35:00
4:55 PM,35.6,14.0,41,30.39,10.0,North,6.9,-,N/A,,Clear,10,2013-04-03 21:55:00
5:15 PM,35.6,15.8,44,30.39,10.0,North,8.1,-,N/A,,Clear,360,2013-04-03 22:15:00
5:35 PM,35.6,14.0,41,30.40,10.0,NNW,5.8,-,N/A,,Clear,330,2013-04-03 22:35:00
5:55 PM,33.8,14.0,44,30.39,10.0,North,8.1,-,N/A,,Clear,350,2013-04-03 22:55:00
6:15 PM,33.8,15.8,48,30.39,10.0,North,5.8,-,N/A,,Clear,10,2013-04-03 23:15:00
6:35 PM,33.8,17.6,52,30.38,10.0,North,4.6,-,N/A,,Clear,10,2013-04-03 23:35:00
6:55 PM,32.0,17.6,55,30.38,10.0,North,5.8,-,N/A,,Clear,10,2013-04-03 23:55:00
7:15 PM,32.0,17.6,55,30.38,10.0,Calm,Calm,-,N/A,,Clear,0,2013-04-04 00:15:00
7:35 PM,32.0,17.6,55,30.37,10.0,Calm,Calm,-,N/A,,Clear,0,2013-04-04 00:35:00
7:55 PM,32.0,17.6,55,30.36,10.0,Calm,Calm,-,N/A,,Clear,0,2013-04-04 00:55:00
8:15 PM,30.2,17.6,60,30.36,10.0,Calm,Calm,-,N/A,,Clear,0,2013-04-04 01:15:00
8:35 PM,30.2,19.4,64,30.37,10.0,Calm,Calm,-,N/A,,Clear,0,2013-04-04 01:35:00
8:55 PM,28.4,19.4,69,30.37,10.0,Calm,Calm,-,N/A,,Clear,0,2013-04-04 01:55:00
9:15 PM,28.4,19.4,69,30.36,10.0,Calm,Calm,-,N/A,,Clear,0,2013-04-04 02:15:00
9:35 PM,28.4,19.4,69,30.36,10.0,Calm,Calm,-,N/A,,Clear,0,2013-04-04 02:35:00
9:55 PM,26.6,19.4,74,30.36,10.0,Calm,Calm,-,N/A,,Clear,0,2013-04-04 02:55:00
10:15 PM,28.4,19.4,69,30.35,10.0,Calm,Calm,-,N/A,,Clear,0,2013-04-04 03:15:00
10:35 PM,26.6,19.4,74,30.34,10.0,Calm,Calm,-,N/A,,Clear,0,2013-04-04 03:35:00
10:55 PM,26.6,19.4,74,30.33,10.0,Calm,Calm,-,N/A,,Clear,0,2013-04-04 03:55:00
11:15 PM,26.6,19.4,74,30.33,10.0,Calm,Calm,-,N/A,,Clear,0,2013-04-04 04:15:00
11:35 PM,26.6,19.4,74,30.33,10.0,Calm,Calm,-,N/A,,Clear,0,2013-04-04 04:35:00
11:55 PM,26.6,19.4,74,30.33,10.0,Calm,Calm,-,N/A,,Clear,0,2013-04-04 04:55:00